createdAt,value
2023-05-05T00:01:14.623Z,97937.38
2023-05-05T00:03:43.531Z,97914.88
2023-05-05T00:06:13.263Z,97902.78
2023-05-05T00:08:41.544Z,97927.66
2023-05-05T00:11:09.778Z,97897.66
2023-05-05T00:13:38.028Z,97840.31
2023-05-05T00:16:06.656Z,97925.19
2023-05-05T00:18:35.151Z,97924.47
2023-05-05T00:21:04.428Z,97883.28
2023-05-05T00:23:34.159Z,97920.88
2023-05-05T00:26:02.341Z,97916.97
2023-05-05T00:28:31.352Z,97908.34
2023-05-05T00:30:59.726Z,97915.38
2023-05-05T00:33:28.016Z,97916.09
2023-05-05T00:35:56.157Z,97902.59
2023-05-05T00:38:24.373Z,97901.19
2023-05-05T00:40:53.974Z,97901.13
2023-05-05T00:43:22.241Z,97896.97
2023-05-05T00:45:58.827Z,97852.22
2023-05-05T00:48:27.116Z,97852.97
2023-05-05T00:50:55.289Z,97885.66
2023-05-05T00:53:23.912Z,97891.78
2023-05-05T00:55:53.894Z,97892.00
2023-05-05T00:58:22.280Z,97893.59
2023-05-05T01:00:50.636Z,97919.91
2023-05-05T01:03:18.838Z,97864.31
2023-05-05T01:06:00.070Z,97883.25
2023-05-05T01:08:45.136Z,97883.41
2023-05-05T01:11:22.639Z,97863.78
2023-05-05T01:14:02.811Z,97863.13
2023-05-05T01:16:34.536Z,97876.81
2023-05-05T01:19:30.300Z,97869.78
2023-05-05T01:22:03.906Z,97876.97
2023-05-05T01:24:45.350Z,97856.13
2023-05-05T01:27:41.448Z,97866.19
2023-05-05T01:30:29.881Z,97868.78
2023-05-05T01:33:05.210Z,97860.28
2023-05-05T01:35:39.084Z,97854.41
2023-05-05T01:38:12.177Z,97782.34
2023-05-05T01:40:44.607Z,97866.66
2023-05-05T01:43:14.955Z,97791.69
2023-05-05T01:45:46.145Z,97872.72
2023-05-05T01:48:18.380Z,97857.63
2023-05-05T01:50:48.105Z,97863.88
2023-05-05T01:53:19.168Z,97817.66
2023-05-05T01:55:48.955Z,97857.22
2023-05-05T01:58:18.550Z,97859.09
2023-05-05T02:00:48.285Z,97833.91
2023-05-05T02:03:20.061Z,97858.94
2023-05-05T02:05:49.682Z,97850.38
2023-05-05T02:08:18.395Z,97847.06
2023-05-05T02:10:46.838Z,97832.25
2023-05-05T02:13:16.705Z,97854.78
2023-05-05T02:15:46.211Z,97834.66
2023-05-05T02:18:16.009Z,97808.00
2023-05-05T02:20:46.913Z,97845.09
2023-05-05T02:23:15.157Z,97843.28
2023-05-05T02:25:47.012Z,97847.59
2023-05-05T02:28:31.994Z,97833.66
2023-05-05T02:31:01.681Z,97824.56
2023-05-05T02:33:34.023Z,97843.63
2023-05-05T02:36:10.239Z,97828.59
2023-05-05T02:38:43.004Z,97846.66
2023-05-05T02:41:15.046Z,97832.78
2023-05-05T02:43:44.648Z,97847.72
2023-05-05T02:46:13.031Z,97788.84
2023-05-05T02:48:41.242Z,97842.41
2023-05-05T02:51:10.740Z,97833.03
2023-05-05T02:53:39.641Z,97725.59
2023-05-05T02:56:16.264Z,97841.13
2023-05-05T02:59:05.451Z,97833.28
2023-05-05T03:01:41.843Z,97824.00
2023-05-05T03:04:16.853Z,97828.19
2023-05-05T03:06:50.219Z,97814.22
2023-05-05T03:09:27.061Z,97828.66
2023-05-05T03:12:00.986Z,97829.00
2023-05-05T03:14:33.424Z,97838.50
2023-05-05T03:17:02.692Z,97804.09
2023-05-05T03:19:32.943Z,97818.09
2023-05-05T03:22:04.862Z,97835.69
2023-05-05T03:24:33.006Z,97824.47
2023-05-05T03:27:01.650Z,97757.50
2023-05-05T03:29:30.375Z,97816.81
2023-05-05T03:31:59.471Z,97779.66
2023-05-05T03:34:27.869Z,97784.97
2023-05-05T03:36:56.375Z,97825.25
2023-05-05T03:39:26.030Z,97832.19
2023-05-05T03:41:54.202Z,97832.31
2023-05-05T03:44:22.433Z,97739.19
2023-05-05T03:46:50.639Z,97829.03
2023-05-05T03:49:18.783Z,97800.59
2023-05-05T03:51:47.430Z,97828.97
2023-05-05T03:54:15.733Z,97826.19
2023-05-05T03:56:45.372Z,97814.19
2023-05-05T03:59:13.639Z,97823.56
2023-05-05T04:01:41.814Z,97831.38
2023-05-05T04:04:10.868Z,97831.38
2023-05-05T04:06:39.022Z,97812.50
2023-05-05T04:09:07.320Z,97838.13
2023-05-05T04:11:35.424Z,97823.28
2023-05-05T04:14:04.991Z,97830.75
2023-05-05T04:16:33.114Z,97841.00
2023-05-05T04:19:01.348Z,97817.44
2023-05-05T04:21:29.516Z,97841.31
2023-05-05T04:23:58.564Z,97846.44
2023-05-05T04:26:27.873Z,97847.09
2023-05-05T04:28:56.914Z,97845.25
2023-05-05T04:31:26.516Z,97846.81
2023-05-05T04:33:54.694Z,97853.53
2023-05-05T04:36:22.830Z,97843.59
2023-05-05T04:38:51.333Z,97847.28
2023-05-05T04:41:19.485Z,97783.06
2023-05-05T04:43:47.684Z,97844.03
2023-05-05T04:46:15.821Z,97825.34
2023-05-05T04:48:45.728Z,97747.53
2023-05-05T04:51:13.962Z,97847.88
2023-05-05T04:53:42.137Z,97824.88
2023-05-05T04:56:10.338Z,97816.78
2023-05-05T04:58:38.498Z,97849.38
2023-05-05T05:01:06.739Z,97851.91
2023-05-05T05:03:35.097Z,97856.88
2023-05-05T05:06:05.031Z,97844.91
2023-05-05T05:08:33.213Z,97861.06
2023-05-05T05:11:01.432Z,97849.72
2023-05-05T05:13:29.701Z,97856.56
2023-05-05T05:15:57.892Z,97848.88
2023-05-05T05:18:26.168Z,97856.59
2023-05-05T05:20:54.365Z,97858.03
2023-05-05T05:23:24.024Z,97860.25
2023-05-05T05:25:52.197Z,97842.50
2023-05-05T05:28:20.441Z,97862.44
2023-05-05T05:30:48.672Z,97855.84
2023-05-05T05:33:16.871Z,97858.06
2023-05-05T05:35:45.062Z,97853.50
2023-05-05T05:38:13.126Z,97842.25
2023-05-05T05:40:42.911Z,97854.09
2023-05-05T05:43:11.113Z,97850.69
2023-05-05T05:45:39.325Z,97855.19
2023-05-05T05:48:07.802Z,97836.56
2023-05-05T05:50:36.539Z,97851.69
2023-05-05T05:53:04.742Z,97857.13
2023-05-05T05:55:32.875Z,97861.47
2023-05-05T05:58:02.496Z,97763.44
2023-05-05T06:00:30.763Z,97846.59
2023-05-05T06:02:59.109Z,97841.81
2023-05-05T06:05:27.293Z,97849.28
2023-05-05T06:07:55.453Z,97856.19
2023-05-05T06:10:28.003Z,97842.50
2023-05-05T06:12:56.740Z,97794.47
2023-05-05T06:15:26.634Z,97859.28
2023-05-05T06:17:54.928Z,97835.44
2023-05-05T06:20:23.164Z,97863.50
2023-05-05T06:22:51.323Z,97852.69
2023-05-05T06:25:19.456Z,97838.16
2023-05-05T06:27:47.700Z,97857.28
2023-05-05T06:30:16.061Z,97834.00
2023-05-05T06:32:45.724Z,97828.78
2023-05-05T06:35:13.948Z,97848.44
2023-05-05T06:37:42.123Z,97747.09
2023-05-05T06:40:11.665Z,97775.22
2023-05-05T06:42:39.909Z,97834.72
2023-05-05T06:45:09.273Z,97838.59
2023-05-05T06:47:37.764Z,97832.97
2023-05-05T06:50:09.398Z,97837.19
2023-05-05T06:52:38.017Z,97825.97
2023-05-05T06:55:06.916Z,97804.66
2023-05-05T06:57:35.168Z,97792.59
2023-05-05T07:00:05.906Z,97831.94
2023-05-05T07:02:34.406Z,97828.63
2023-05-05T07:05:02.641Z,97834.56
2023-05-05T07:07:32.711Z,97818.91
2023-05-05T07:10:01.107Z,97828.63
2023-05-05T07:12:31.390Z,97829.81
2023-05-05T07:15:00.714Z,97825.44
2023-05-05T07:17:31.493Z,97830.75
2023-05-05T07:19:59.785Z,97823.78
2023-05-05T07:22:27.977Z,97818.81
2023-05-05T07:24:57.536Z,97823.09
2023-05-05T07:27:26.079Z,97818.66
2023-05-05T07:29:54.252Z,97791.72
2023-05-05T07:32:22.593Z,97811.56
2023-05-05T07:34:50.900Z,97810.41
2023-05-05T07:37:19.097Z,97802.97
2023-05-05T07:39:48.878Z,97806.66
2023-05-05T07:42:18.536Z,97809.22
2023-05-05T07:44:46.815Z,97802.97
2023-05-05T07:47:14.996Z,97807.84
2023-05-05T07:49:43.247Z,97790.78
2023-05-05T07:52:11.558Z,97797.94
2023-05-05T07:54:39.744Z,97802.09
2023-05-05T07:57:07.884Z,97796.78
2023-05-05T07:59:38.678Z,97795.19
2023-05-05T08:02:06.985Z,97791.81
2023-05-05T08:04:35.235Z,97784.00
2023-05-05T08:07:03.543Z,97801.63
2023-05-05T08:09:31.775Z,97712.22
2023-05-05T08:11:59.905Z,97803.16
2023-05-05T08:14:28.064Z,97785.28
2023-05-05T08:16:57.903Z,97788.31
2023-05-05T08:19:29.404Z,97747.97
2023-05-05T08:21:58.922Z,97792.84
2023-05-05T08:24:29.370Z,97783.16
2023-05-05T08:26:57.900Z,97789.28
2023-05-05T08:29:26.108Z,97698.44
2023-05-05T08:31:54.592Z,97774.44
2023-05-05T08:34:24.237Z,97788.06
2023-05-05T08:36:52.552Z,97759.47
2023-05-05T08:39:20.821Z,97788.09
2023-05-05T08:41:49.183Z,97778.88
2023-05-05T08:44:17.384Z,97776.59
2023-05-05T08:46:45.832Z,97765.22
2023-05-05T08:49:17.042Z,97761.94
2023-05-05T08:51:47.980Z,97783.69
2023-05-05T08:54:20.331Z,97783.91
2023-05-05T08:56:52.335Z,97742.97
2023-05-05T08:59:24.285Z,97782.50
2023-05-05T09:01:54.555Z,97775.75
2023-05-05T09:04:23.366Z,97778.88
2023-05-05T09:06:53.046Z,97767.56
2023-05-05T09:09:21.887Z,97774.09
2023-05-05T09:11:52.917Z,97773.31
2023-05-05T09:14:21.133Z,97767.94
2023-05-05T09:16:49.337Z,97744.63
2023-05-05T09:19:17.492Z,97738.06
2023-05-05T09:21:49.910Z,97755.09
2023-05-05T09:24:19.773Z,97760.44
2023-05-05T09:26:50.014Z,97734.84
2023-05-05T09:29:21.571Z,97720.88
2023-05-05T09:32:05.849Z,97746.16
2023-05-05T09:34:35.682Z,97754.69
2023-05-05T09:37:03.928Z,97749.78
2023-05-05T09:39:33.575Z,97739.53
2023-05-05T09:42:03.517Z,97744.69
2023-05-05T09:44:36.165Z,97747.81
2023-05-05T09:47:09.497Z,97756.84
2023-05-05T09:49:43.249Z,97736.50
2023-05-05T09:52:16.057Z,97747.59
2023-05-05T09:54:46.059Z,97749.22
2023-05-05T09:57:26.940Z,97745.34
2023-05-05T09:59:59.518Z,97674.47
2023-05-05T10:02:35.846Z,97742.94
2023-05-05T10:05:07.189Z,97637.91
2023-05-05T10:07:36.206Z,97738.00
2023-05-05T10:10:08.287Z,97746.13
2023-05-05T10:12:37.878Z,97748.34
2023-05-05T10:15:07.522Z,97738.09
2023-05-05T10:17:38.484Z,97727.09
2023-05-05T10:20:11.703Z,97733.16
2023-05-05T10:22:42.883Z,97727.97
2023-05-05T10:25:14.435Z,97722.09
2023-05-05T10:27:46.168Z,97721.19
2023-05-05T10:30:21.918Z,97727.59
2023-05-05T10:33:04.379Z,97712.91
2023-05-05T10:35:41.789Z,97720.03
2023-05-05T10:38:10.462Z,97712.66
2023-05-05T10:40:41.264Z,97698.13
2023-05-05T10:43:09.560Z,97694.88
2023-05-05T10:45:38.785Z,97690.47
2023-05-05T10:48:11.801Z,97701.69
2023-05-05T10:50:45.977Z,97638.56
2023-05-05T10:53:20.323Z,97698.47
2023-05-05T10:55:56.220Z,97686.09
2023-05-05T10:58:43.668Z,97687.22
2023-05-05T11:01:30.570Z,97622.63
2023-05-05T11:04:18.320Z,97683.53
2023-05-05T11:07:22.543Z,97679.78
2023-05-05T11:10:01.263Z,97684.59
2023-05-05T11:12:31.068Z,97663.81
2023-05-05T11:15:38.051Z,97679.19
2023-05-05T11:18:08.406Z,97676.84
2023-05-05T11:21:07.463Z,97667.66
2023-05-05T11:23:35.809Z,97686.09
2023-05-05T11:26:04.329Z,97638.97
2023-05-05T11:28:34.152Z,97638.03
2023-05-05T11:31:19.447Z,97669.22
2023-05-05T11:33:48.017Z,97621.28
2023-05-05T11:36:17.054Z,97656.66
2023-05-05T11:39:03.453Z,97654.88
2023-05-05T11:41:54.322Z,97647.94
2023-05-05T11:44:31.917Z,97657.19
2023-05-05T11:47:31.227Z,97648.56
2023-05-05T11:49:59.632Z,97642.38
2023-05-05T11:52:31.437Z,97629.84
2023-05-05T11:55:03.887Z,97635.53
2023-05-05T11:57:32.491Z,97632.56
2023-05-05T12:00:04.003Z,97635.25
2023-05-05T12:02:32.703Z,97634.72
2023-05-05T12:05:02.072Z,97632.88
2023-05-05T12:07:31.713Z,97604.66
2023-05-05T12:10:00.254Z,97621.09
2023-05-05T12:12:40.176Z,97619.97
2023-05-05T12:15:11.557Z,97626.88
2023-05-05T12:17:42.881Z,97624.38
2023-05-05T12:20:12.642Z,97630.66
2023-05-05T12:22:41.605Z,97624.78
2023-05-05T12:25:10.650Z,97572.78
2023-05-05T12:27:39.046Z,97623.16
2023-05-05T12:30:19.886Z,97610.22
2023-05-05T12:32:48.222Z,97588.91
2023-05-05T12:35:17.199Z,97588.31
2023-05-05T12:37:45.710Z,97604.00
2023-05-05T12:40:44.105Z,97591.25
2023-05-05T12:43:23.756Z,97604.94
2023-05-05T12:46:02.171Z,97607.69
2023-05-05T12:48:30.868Z,97607.00
2023-05-05T12:51:15.258Z,97600.41
2023-05-05T12:53:43.836Z,97600.31
2023-05-05T12:56:31.259Z,97558.34
2023-05-05T12:58:59.758Z,97590.94
2023-05-05T13:01:29.931Z,97553.47
2023-05-05T13:04:09.730Z,97570.88
2023-05-05T13:06:38.815Z,97574.13
2023-05-05T13:09:07.719Z,97575.81
2023-05-05T13:11:39.452Z,97575.84
2023-05-05T13:14:09.284Z,97556.16
2023-05-05T13:16:38.915Z,97561.88
2023-05-05T13:19:07.088Z,97563.50
2023-05-05T13:21:35.373Z,97510.75
2023-05-05T13:26:34.927Z,97533.66
2023-05-05T13:29:03.125Z,97539.69
2023-05-05T13:31:31.560Z,97541.88
2023-05-05T13:34:01.183Z,97541.47
2023-05-05T13:36:29.381Z,97541.63
2023-05-05T13:38:57.602Z,97514.81
2023-05-05T13:41:25.981Z,97513.13
2023-05-05T13:43:54.537Z,97523.75
2023-05-05T13:46:22.707Z,97522.22
2023-05-05T13:48:55.967Z,97521.81
2023-05-05T13:51:26.102Z,97509.59
2023-05-05T13:53:54.327Z,97504.72
2023-05-05T13:56:26.215Z,97511.72
2023-05-05T13:58:54.635Z,97507.38
2023-05-05T14:01:22.963Z,97482.84
2023-05-05T14:03:51.310Z,97500.78
2023-05-05T14:06:19.602Z,97491.97
2023-05-05T14:08:49.200Z,97491.34
2023-05-05T14:11:18.295Z,97486.47
2023-05-05T14:13:48.222Z,97413.44
2023-05-05T14:16:18.065Z,97504.03
2023-05-05T14:18:46.315Z,97441.97
2023-05-05T14:21:14.483Z,97496.19
2023-05-05T14:23:42.647Z,97394.31
2023-05-05T14:26:12.306Z,97495.16
2023-05-05T14:28:40.439Z,97489.09
2023-05-05T14:31:08.622Z,97488.91
2023-05-05T14:33:36.779Z,97485.91
2023-05-05T14:36:05.257Z,97471.50
2023-05-05T14:38:33.517Z,97497.53
2023-05-05T14:41:01.699Z,97488.75
2023-05-05T14:43:31.339Z,97469.47
2023-05-05T14:46:00.579Z,97467.09
2023-05-05T14:48:29.315Z,97475.25
2023-05-05T14:50:57.567Z,97479.59
2023-05-05T14:53:25.847Z,97471.34
2023-05-05T14:55:54.070Z,97468.84
2023-05-05T14:58:24.582Z,97476.75
2023-05-05T15:00:54.702Z,97476.50
2023-05-05T15:03:23.022Z,97476.97
2023-05-05T15:05:51.310Z,97452.97
2023-05-05T15:08:19.935Z,97471.28
2023-05-05T15:10:48.190Z,97472.44
2023-05-05T15:13:17.375Z,97456.69
2023-05-05T15:15:45.727Z,97479.66
2023-05-05T15:18:15.497Z,97471.72
2023-05-05T15:20:43.780Z,97474.09
2023-05-05T15:23:11.985Z,97465.88
2023-05-05T15:25:40.375Z,97466.06
2023-05-05T15:28:08.661Z,97477.22
2023-05-05T15:30:37.015Z,97452.84
2023-05-05T15:33:05.328Z,97462.56
2023-05-05T15:35:36.271Z,97446.22
2023-05-05T15:38:04.744Z,97464.97
2023-05-05T15:40:33.098Z,97456.00
2023-05-05T15:43:01.375Z,97459.22
2023-05-05T15:45:29.601Z,97433.88
2023-05-05T15:47:57.919Z,97456.03
2023-05-05T15:50:26.210Z,97443.84
2023-05-05T15:52:57.484Z,97439.56
2023-05-05T15:55:25.903Z,97425.56
2023-05-05T15:57:54.447Z,97434.78
2023-05-05T16:00:23.225Z,97433.09
2023-05-05T16:02:51.713Z,97395.91
2023-05-05T16:05:22.790Z,97414.22
2023-05-05T16:07:52.651Z,97427.19
2023-05-05T16:10:22.758Z,97286.50
2023-05-05T16:12:52.277Z,97396.41
2023-05-05T16:15:20.822Z,97398.53
2023-05-05T16:17:49.124Z,97415.00
2023-05-05T16:20:17.505Z,97411.34
2023-05-05T16:22:45.916Z,97418.66
2023-05-05T16:25:17.720Z,97409.94
2023-05-05T16:27:47.495Z,97417.19
2023-05-05T16:30:16.663Z,97423.44
2023-05-05T16:32:45.259Z,97414.38
2023-05-05T16:35:13.508Z,97424.28
2023-05-05T16:37:41.735Z,97413.38
2023-05-05T16:40:11.210Z,97375.41
2023-05-05T16:42:39.599Z,97400.72
2023-05-05T16:45:10.790Z,97414.25
2023-05-05T16:47:39.214Z,97198.97
2023-05-05T16:50:08.658Z,97420.59
2023-05-05T16:52:36.970Z,97421.50
2023-05-05T16:55:05.722Z,97429.00
2023-05-05T16:57:33.883Z,97435.91
2023-05-05T17:00:02.060Z,97436.94
2023-05-05T17:02:31.807Z,97389.41
2023-05-05T17:05:00.265Z,97428.75
2023-05-05T17:07:28.668Z,97450.75
2023-05-05T17:09:56.918Z,97444.94
2023-05-05T17:12:25.147Z,97407.06
2023-05-05T17:14:53.403Z,97457.88
2023-05-05T17:17:21.631Z,97442.69
2023-05-05T17:19:51.561Z,97459.56
2023-05-05T17:22:19.732Z,97446.78
2023-05-05T17:24:48.992Z,97446.41
2023-05-05T17:27:17.560Z,97467.38
2023-05-05T17:29:45.923Z,97466.44
2023-05-05T17:32:14.222Z,97452.06
2023-05-05T17:34:42.532Z,97279.50
2023-05-05T17:37:12.298Z,97460.56
2023-05-05T17:39:40.655Z,97449.41
2023-05-05T17:42:09.129Z,97480.03
2023-05-05T17:44:37.295Z,97452.34
2023-05-05T17:47:07.843Z,97482.44
2023-05-05T17:49:36.111Z,97496.97
2023-05-05T17:52:04.448Z,97490.28
2023-05-05T17:54:34.174Z,97493.56
2023-05-05T17:57:02.539Z,97504.25
2023-05-05T17:59:32.618Z,97493.44
2023-05-05T18:02:01.045Z,97480.97
2023-05-05T18:04:57.403Z,97505.44
2023-05-05T18:07:40.971Z,97458.22
2023-05-05T18:11:01.051Z,97502.69
2023-05-05T18:14:03.284Z,97507.06
2023-05-05T18:17:28.320Z,97508.91
2023-05-05T18:24:55.359Z,97515.88
2023-05-05T18:27:55.933Z,97471.94
2023-05-05T18:30:24.120Z,97517.31
2023-05-05T18:32:52.328Z,97527.09
2023-05-05T18:35:21.573Z,97514.41
2023-05-05T18:37:49.956Z,97537.38
2023-05-05T18:40:18.350Z,97522.34
2023-05-05T18:42:46.593Z,97537.16
2023-05-05T18:45:16.324Z,97448.59
2023-05-05T18:47:44.570Z,97527.19
2023-05-05T18:50:13.103Z,97548.28
2023-05-05T18:52:41.333Z,97547.72
2023-05-05T18:55:10.371Z,97550.34
2023-05-05T18:57:38.763Z,97546.81
2023-05-05T19:00:08.420Z,97536.13
2023-05-05T19:02:38.130Z,97556.16
2023-05-05T19:05:07.600Z,97545.91
2023-05-05T19:07:36.864Z,97560.81
2023-05-05T19:10:05.693Z,97567.38
2023-05-05T19:12:33.965Z,97540.22
2023-05-05T19:15:02.190Z,97571.78
2023-05-05T19:17:30.511Z,97567.41
2023-05-05T19:20:00.245Z,97569.13
2023-05-05T19:22:28.874Z,97559.66
2023-05-05T19:24:57.129Z,97579.19
2023-05-05T19:27:25.410Z,97566.09
2023-05-05T19:29:53.673Z,97584.97
2023-05-05T19:32:22.740Z,97532.13
2023-05-05T19:34:54.400Z,97584.41
2023-05-05T19:37:24.151Z,97562.38
2023-05-05T19:39:52.355Z,97464.44
2023-05-05T19:42:20.885Z,97524.34
2023-05-05T19:44:49.131Z,97585.31
2023-05-05T19:47:18.082Z,97588.34
2023-05-05T19:49:46.300Z,97572.19
2023-05-05T19:52:14.491Z,97585.78
2023-05-05T19:54:44.075Z,97577.13
2023-05-05T19:57:12.719Z,97583.97
2023-05-05T19:59:41.811Z,97582.44
2023-05-05T20:02:11.626Z,97576.19
2023-05-05T20:04:39.891Z,97560.63
2023-05-05T20:07:08.028Z,97572.56
2023-05-05T20:09:37.805Z,97575.31
2023-05-05T20:12:08.399Z,97556.06
2023-05-05T20:14:36.961Z,97575.50
2023-05-05T20:17:05.346Z,97553.38
2023-05-05T20:19:33.677Z,97559.66
2023-05-05T20:22:01.937Z,97564.75
2023-05-05T20:24:30.182Z,97552.19
2023-05-05T20:26:58.592Z,97518.63
2023-05-05T20:29:28.301Z,97567.72
2023-05-05T20:31:56.550Z,97574.09
2023-05-05T20:34:25.486Z,97519.47
2023-05-05T20:36:54.297Z,97565.44
2023-05-05T20:39:22.744Z,97585.69
2023-05-05T20:41:51.075Z,97572.78
2023-05-05T20:44:19.911Z,97562.31
2023-05-05T20:46:50.543Z,97575.91
2023-05-05T20:49:18.874Z,97527.50
2023-05-05T20:51:47.196Z,97569.50
2023-05-05T20:54:15.427Z,97536.16
2023-05-05T20:56:43.676Z,97587.28
2023-05-05T20:59:12.160Z,97595.91
2023-05-05T21:01:41.616Z,97584.56
2023-05-05T21:04:11.418Z,97570.59
2023-05-05T21:06:39.737Z,97595.81
2023-05-05T21:09:08.034Z,97591.97
2023-05-05T21:11:36.339Z,97570.09
2023-05-05T21:14:06.097Z,97515.34
2023-05-05T21:16:34.350Z,97592.66
2023-05-05T21:19:02.532Z,97573.63
2023-05-05T21:21:32.112Z,97585.66
2023-05-05T21:24:00.313Z,97588.38
2023-05-05T21:26:28.645Z,97580.63
2023-05-05T21:28:56.808Z,97527.78
2023-05-05T21:31:25.141Z,97411.13
2023-05-05T21:33:54.330Z,97577.38
2023-05-05T21:36:22.611Z,97583.84
2023-05-05T21:38:55.663Z,97572.06
2023-05-05T21:41:24.648Z,97580.25
2023-05-05T21:43:52.878Z,97552.66
2023-05-05T21:46:21.191Z,97568.72
2023-05-05T21:48:49.393Z,97555.81
2023-05-05T21:51:17.670Z,97580.25
2023-05-05T21:53:46.310Z,97576.56
2023-05-05T21:56:15.945Z,97543.50
2023-05-05T21:58:44.676Z,97588.34
2023-05-05T22:01:13.497Z,97466.75
2023-05-05T22:03:43.634Z,97573.66
2023-05-05T22:06:12.486Z,97579.81
2023-05-05T22:08:40.603Z,97585.13
2023-05-05T22:11:08.821Z,97581.78
2023-05-05T22:13:39.136Z,97580.91
2023-05-05T22:16:07.940Z,97571.94
2023-05-05T22:18:36.430Z,97554.66
2023-05-05T22:21:05.340Z,97571.22
2023-05-05T22:23:33.716Z,97551.50
2023-05-05T22:26:02.045Z,97569.47
2023-05-05T22:28:30.478Z,97559.19
2023-05-05T22:31:00.288Z,97563.88
2023-05-05T22:33:28.721Z,97542.50
2023-05-05T22:35:57.040Z,97530.69
2023-05-05T22:38:25.334Z,97543.66
2023-05-05T22:40:53.610Z,97482.25
2023-05-05T22:43:21.868Z,97540.38
2023-05-05T22:45:50.132Z,97537.13
2023-05-05T22:48:19.749Z,97450.28
2023-05-05T22:50:48.011Z,97546.41
2023-05-05T22:53:16.151Z,97547.72
2023-05-05T22:55:44.533Z,97531.25
2023-05-05T22:58:12.734Z,97548.09
2023-05-05T23:00:41.103Z,97547.03
2023-05-05T23:03:09.920Z,97541.03
2023-05-05T23:05:39.564Z,97548.88
2023-05-05T23:08:07.955Z,97549.28
2023-05-05T23:10:36.173Z,97512.97
2023-05-05T23:13:04.519Z,97542.06
2023-05-05T23:15:32.872Z,97532.94
2023-05-05T23:18:01.153Z,97520.03
2023-05-05T23:20:29.701Z,97536.59
2023-05-05T23:22:59.298Z,97524.78
2023-05-05T23:25:27.594Z,97479.34
2023-05-05T23:27:56.139Z,97535.97
2023-05-05T23:30:24.303Z,97501.81
2023-05-05T23:32:52.718Z,97501.44
2023-05-05T23:35:21.578Z,97482.41
2023-05-05T23:37:50.100Z,97514.94
2023-05-05T23:40:19.848Z,97483.09
2023-05-05T23:42:48.137Z,97510.34
2023-05-05T23:45:19.190Z,97501.94
2023-05-05T23:47:47.826Z,97508.53
2023-05-05T23:50:16.050Z,97517.34
2023-05-05T23:52:44.489Z,97488.91
2023-05-05T23:55:12.773Z,97506.53
2023-05-05T23:57:42.364Z,97486.56
